• Join FlightAware (Why Join?)
  • Login
  • US Flag 
03:13PM EDT


 

Airport Tracker/Info


-or-


 

Live Flight TrackerFlight Track Log ✈ DAL1979 ✈ 17-May-2013 ✈ KMCO - KMSP

Flight Track Log - Related Links

Times and Time Zones

All times are in EDT time to prevent confusion due to time zone crossing. See the DAL1979 flight status page for this flight to view local times or setup timezone preferences in your user account.

Time Position Orientation Groundspeed Altitude Reporting Facility
EDT Latitude Longitude Course Direction KTS MPH feet Rate Location/Type
04:03PM 28.4120 -81.2960 172° South 181 208 100  Level FlightAware
04:04PM 28.3880 -81.3010 190° South 188 216 1,300 1,860 Climbing FlightAware
04:04PM 28.3770 -81.3090 213° Southwest 212 244 1,500 1,200 Climbing FlightAware
04:04PM 28.3540 -81.3280 216° Southwest 231 266 2,100 1,500 Climbing FlightAware
04:04PM 28.3430 -81.3420 228° Southwest 252 290 2,500 1,800 Climbing FlightAware
04:05PM 28.3400 -81.3600 259° West 260 299 3,000 1,980 Climbing FlightAware
04:05PM 28.3390 -81.3830 267° West 271 312 3,500 2,700 Climbing FlightAware
04:05PM 28.3390 -81.4200 270° West 273 314 4,800 2,700 Climbing FlightAware
04:06PM 28.3390 -81.4620 270° West 284 327 6,000 2,760 Climbing FlightAware
04:06PM 28.3390 -81.5070 270° West 278 320 7,600 2,040 Climbing FlightAware
04:07PM 28.3390 -81.5430 270° West 283 326 7,900 1,260 Climbing FlightAware
04:07PM 28.3400 -81.5900 271° West 290 334 8,800 1,200 Climbing FlightAware
04:08PM 28.3400 -81.6500 270° West 289 333 9,300 1,260 Climbing FlightAware
04:08PM 28.3390 -81.6740 267° West 291 335 10,000 1,500 Climbing FlightAware
04:09PM 28.3390 -81.7390 270° West 326 375 10,700 960 Climbing FlightAware
04:10PM 28.3380 -81.8200 269° West 366 421 11,400 1,320 Climbing FlightAware
04:10PM 28.3370 -81.8990 269° West 380 437 12,600 1,980 Climbing FlightAware
04:11PM 28.3360 -81.9770 269° West 380 437 14,100 2,220 Climbing FlightAware
04:12PM 28.3360 -82.0740 270° West 385 443 15,800 2,100 Climbing FlightAware
04:12PM 28.3370 -82.1560 271° West 391 450 17,100 1,740 Climbing FlightAware
04:13PM 28.3360 -82.2460 269° West 397 457 18,300 1,620 Climbing FlightAware
04:14PM 28.3500 -82.3280 281° West 400 460 19,400 1,500 Climbing FlightAware
04:15PM 28.4020 -82.4060 307° West 405 466 20,500 1,440 Climbing FlightAware
04:15PM 28.4520 -82.4690 312° West 410 472 21,500 1,500 Climbing FlightAware
04:16PM 28.5070 -82.5290 316° Northwest 418 481 22,500 1,320 Climbing FlightAware
04:17PM 28.5870 -82.5720 335° Northwest 429 494 23,400 1,200 Climbing FlightAware
04:18PM 28.6850 -82.6180 338° Northwest 435 501 24,500 1,200 Climbing FlightAware
04:18PM 28.7670 -82.6560 338° Northwest 441 507 25,400 1,020 Climbing FlightAware
04:19PM 28.8410 -82.6900 338° Northwest 445 512 26,000 480 Climbing FlightAware
04:20PM 28.9120 -82.7240 337° Northwest 447 514 26,000 420 Level FlightAware
04:20PM 28.9790 -82.7840 322° Northwest 434 499 26,600 900 Climbing FlightAware
04:21PM 29.0370 -82.8780 305° West 431 496 27,400 1,020 Climbing FlightAware
04:22PM 29.0830 -82.9340 313° West 438 504 28,000 600 Climbing FlightAware
04:22PM 29.1510 -82.9940 322° Northwest 449 517 28,200 1,380 Climbing FlightAware
04:23PM 29.2360 -83.0340 338° Northwest 432 497 30,000 1,260 Climbing FlightAware
04:24PM 29.3200 -83.0830 333° Northwest 450 518 30,000 120 Level FlightAware
04:25PM 29.4050 -83.1310 334° Northwest 452 520 30,200 660 Climbing FlightAware
04:25PM 29.4800 -83.1750 333° Northwest 449 517 31,000 1,080 Climbing FlightAware
04:26PM 29.5640 -83.2230 334° Northwest 440 506 31,800 660 Climbing FlightAware
04:27PM 29.6370 -83.2670 332° Northwest 449 517 32,000 60 Climbing FlightAware
04:28PM 29.8330 -83.3820 333° Northwest 448 516 32,000  Level FlightAware
04:32PM 30.2040 -83.6030 333° Northwest 437 503 32,000  Level FlightAware
04:33PM 30.3130 -83.6680 333° Northwest 438 504 32,000  Level FlightAware
04:33PM 30.3880 -83.7120 333° Northwest 448 516 32,000  Level FlightAware
04:34PM 30.4770 -83.7660 332° Northwest 448 516 32,000  Level FlightAware
04:35PM 30.5650 -83.8180 333° Northwest 450 518 32,000  Level FlightAware
04:36PM 30.6430 -83.8650 333° Northwest 450 518 32,000  Level FlightAware
04:36PM 30.7130 -83.9070 333° Northwest 452 520 32,000  Level FlightAware
04:37PM 30.7930 -83.9560 332° Northwest 454 522 32,000  Level FlightAware
04:38PM 30.8730 -84.0040 333° Northwest 455 524 32,000  Level FlightAware
04:39PM 30.9570 -84.0550 332° Northwest 455 524 32,000  Level FlightAware
04:39PM 31.0180 -84.0930 332° Northwest 457 526 32,000  Level FlightAware
04:40PM 31.0970 -84.1420 332° Northwest 457 526 32,000  Level FlightAware
04:41PM 31.1600 -84.1810 332° Northwest 457 526 32,000  Level FlightAware
04:41PM 31.2240 -84.2210 332° Northwest 457 526 32,000  Level FlightAware
04:42PM 30.9760 -84.0670 152° Southeast 32,000  Level FlightAware
04:42PM 31.3319 -84.2861 152° Southeast 453 521 32,000  Level Jacksonville Center
04:44PM 31.5914 -84.4461 332° Northwest 457 526 32,000  Level Atlanta Center
04:45PM 31.7081 -84.5197 332° Northwest 457 526 32,000  Level Atlanta Center
04:51PM 32.4030 -84.9490 332° Northwest 461 531 32,000  Level FlightAware
04:52PM 32.4670 -84.9910 331° Northwest 462 532 32,000  Level FlightAware
04:52PM 32.5310 -85.0330 331° Northwest 462 532 32,000  Level FlightAware
04:53PM 32.5940 -85.0750 331° Northwest 462 532 32,000  Level FlightAware
04:54PM 32.7260 -85.1540 333° Northwest 469 540 32,000  Level FlightAware
04:55PM 32.8050 -85.2040 332° Northwest 468 539 32,000  Level FlightAware
04:55PM 32.8910 -85.2590 332° Northwest 468 539 32,000  Level FlightAware
04:56PM 32.9690 -85.3080 332° Northwest 468 539 32,000  Level FlightAware
04:57PM 33.0470 -85.3580 332° Northwest 468 539 32,000  Level FlightAware
04:57PM 33.1260 -85.4090 332° Northwest 465 535 32,000  Level FlightAware
04:58PM 33.2050 -85.4600 332° Northwest 464 534 32,000  Level FlightAware
04:59PM 33.2810 -85.5090 332° Northwest 461 531 32,000  Level FlightAware
05:00PM 33.3660 -85.5640 332° Northwest 459 528 32,000  Level FlightAware
05:00PM 33.4420 -85.6120 332° Northwest 458 527 32,000  Level FlightAware
05:01PM 33.5160 -85.6600 332° Northwest 457 526 32,000  Level FlightAware
05:02PM 33.5990 -85.7150 331° Northwest 457 526 32,000  Level FlightAware
05:02PM 33.6740 -85.7630 332° Northwest 458 527 32,000  Level FlightAware
05:03PM 33.7500 -85.8130 331° Northwest 460 529 32,000  Level FlightAware
05:04PM 33.8245 -85.8615 332° Northwest 461 531 32,000  Level FlightAware ADS-B
05:04PM 33.8845 -85.9007 332° Northwest 461 531 32,000  Level FlightAware ADS-B
05:05PM 33.9574 -85.9485 331° Northwest 462 532 32,000  Level FlightAware ADS-B
05:05PM 34.0255 -85.9932 331° Northwest 462 532 32,000  Level FlightAware ADS-B
05:06PM 34.0826 -86.0308 331° Northwest 463 533 32,000  Level FlightAware ADS-B
05:06PM 34.1430 -86.0708 331° Northwest 462 532 32,000  Level FlightAware ADS-B
05:07PM 34.2002 -86.1086 331° Northwest 460 529 32,000  Level FlightAware ADS-B
05:07PM 34.2582 -86.1468 331° Northwest 459 528 32,000  Level FlightAware ADS-B
05:08PM 34.3157 -86.1852 331° Northwest 458 527 32,000  Level FlightAware ADS-B
05:09PM 34.3843 -86.2306 331° Northwest 457 526 32,000  Level FlightAware ADS-B
05:09PM 34.4409 -86.2682 331° Northwest 455 524 32,000  Level FlightAware ADS-B
05:10PM 34.5176 -86.3194 331° Northwest 453 521 32,000  Level FlightAware ADS-B
05:10PM 34.5772 -86.3591 331° Northwest 452 520 32,000  Level FlightAware ADS-B
05:11PM 34.6387 -86.4001 331° Northwest 450 518 32,000  Level FlightAware ADS-B
05:11PM 34.7002 -86.4415 331° Northwest 449 517 32,000  Level FlightAware ADS-B
05:12PM 34.7560 -86.4788 331° Northwest 449 517 32,000  Level FlightAware ADS-B
05:12PM 34.8147 -86.5183 331° Northwest 453 521 32,000  Level FlightAware ADS-B
05:13PM 34.8700 -86.5556 331° Northwest 455 524 32,000  Level FlightAware ADS-B
05:14PM 34.9305 -86.5962 331° Northwest 459 528 32,000  Level FlightAware ADS-B
05:14PM 34.9896 -86.6361 331° Northwest 461 531 32,000  Level FlightAware ADS-B
05:14PM 35.0121 -86.6500 333° Northwest 464 534 32,000  Level FlightAware ADS-B
05:15PM 35.0728 -86.6792 339° North 469 540 32,000  Level FlightAware ADS-B
05:15PM 35.1361 -86.7080 340° North 471 542 32,000  Level FlightAware ADS-B
05:16PM 35.1995 -86.7364 340° North 473 544 32,000  Level FlightAware ADS-B
05:16PM 35.2632 -86.7650 340° North 474 545 32,000  Level FlightAware ADS-B
05:17PM 35.3267 -86.7935 340° North 475 547 32,000  Level FlightAware ADS-B
05:17PM 35.3912 -86.8225 340° North 476 548 32,000  Level FlightAware ADS-B
05:18PM 35.4588 -86.8535 340° North 477 549 32,000  Level FlightAware ADS-B
05:18PM 35.5280 -86.8850 340° North 476 548 32,000  Level FlightAware
05:19PM 35.5695 -86.9038 340° North 475 547 32,000  Level FlightAware ADS-B
05:19PM 35.6472 -86.9385 340° North 474 545 32,000  Level FlightAware ADS-B
05:20PM 35.7117 -86.9664 341° North 472 543 32,000  Level FlightAware ADS-B
05:21PM 35.7840 -86.9980 340° North 470 541 32,000  Level FlightAware
05:21PM 35.8780 -87.0400 340° North 468 539 32,000  Level FlightAware
05:22PM 35.9600 -87.0760 340° North 468 539 32,000  Level FlightAware
05:23PM 36.0480 -87.1170 339° North 466 536 32,000  Level FlightAware
05:23PM 36.1250 -87.1660 333° Northwest 463 533 32,000  Level FlightAware
05:24PM 36.1980 -87.2180 330° Northwest 463 533 32,000  Level FlightAware
05:25PM 36.2850 -87.2810 330° Northwest 462 532 32,000  Level FlightAware
05:25PM 36.3590 -87.3360 329° Northwest 460 529 32,000  Level FlightAware
05:26PM 36.4400 -87.3950 330° Northwest 460 529 32,000  Level FlightAware
05:27PM 36.5130 -87.4500 329° Northwest 458 527 32,000  Level FlightAware
05:28PM 36.5870 -87.5040 330° Northwest 457 526 32,000  Level FlightAware
05:28PM 36.6670 -87.5630 329° Northwest 457 526 32,000  Level FlightAware
05:29PM 36.7330 -87.6130 329° Northwest 457 526 32,000  Level FlightAware
05:30PM 36.7950 -87.6590 329° Northwest 457 526 32,000  Level FlightAware
05:30PM 36.8930 -87.7320 329° Northwest 458 527 32,000  Level FlightAware
05:31PM 36.9660 -87.7860 329° Northwest 457 526 32,000  Level FlightAware
05:32PM 37.0450 -87.8460 329° Northwest 457 526 32,000  Level FlightAware
05:32PM 37.1180 -87.9000 329° Northwest 455 524 32,000  Level FlightAware
05:33PM 37.1960 -87.9600 329° Northwest 455 524 32,000  Level FlightAware
05:34PM 37.2700 -88.0150 329° Northwest 455 524 32,000  Level FlightAware
05:35PM 37.3500 -88.0750 329° Northwest 454 522 32,000  Level FlightAware
05:35PM 37.4300 -88.1360 329° Northwest 453 521 32,000  Level FlightAware
05:36PM 37.5010 -88.1900 329° Northwest 453 521 32,000  Level FlightAware
05:37PM 37.5730 -88.2450 329° Northwest 453 521 32,000  Level FlightAware
05:37PM 37.6530 -88.3060 329° Northwest 452 520 32,000  Level FlightAware
05:38PM 37.7250 -88.3610 329° Northwest 454 522 32,000  Level FlightAware
05:39PM 37.8070 -88.4240 329° Northwest 454 522 32,000  Level FlightAware
05:39PM 37.8780 -88.4780 329° Northwest 454 522 32,000  Level FlightAware
05:40PM 37.9610 -88.5420 329° Northwest 454 522 32,000  Level FlightAware
05:41PM 38.0330 -88.5980 329° Northwest 454 522 32,000  Level FlightAware
05:42PM 38.1010 -88.6500 329° Northwest 454 522 32,000  Level FlightAware
05:42PM 38.1850 -88.7150 329° Northwest 456 525 32,000  Level FlightAware
05:43PM 38.2560 -88.7710 328° Northwest 456 525 32,000  Level FlightAware
05:44PM 38.3280 -88.8270 329° Northwest 455 524 32,000  Level FlightAware
05:44PM 38.3980 -88.8810 329° Northwest 455 524 32,000  Level FlightAware
05:45PM 38.4810 -88.9460 328° Northwest 454 522 32,000  Level FlightAware
05:46PM 38.5510 -89.0020 328° Northwest 454 522 32,000  Level FlightAware
05:46PM 38.6150 -89.0520 329° Northwest 452 520 32,000  Level FlightAware
05:47PM 38.7110 -89.1270 329° Northwest 451 519 32,000  Level FlightAware
05:48PM 38.7820 -89.1830 328° Northwest 451 519 32,000  Level FlightAware
05:49PM 38.8540 -89.2410 328° Northwest 451 519 32,000  Level FlightAware
05:49PM 38.9340 -89.3040 329° Northwest 450 518 32,000  Level FlightAware
05:50PM 39.0040 -89.3600 328° Northwest 452 520 32,000  Level FlightAware
05:51PM 39.0590 -89.4050 328° Northwest 452 520 32,000  Level FlightAware
05:51PM 39.1560 -89.4810 329° Northwest 454 522 32,000  Level FlightAware
05:52PM 39.2270 -89.5390 328° Northwest 455 524 32,000  Level FlightAware
05:53PM 39.2940 -89.5930 328° Northwest 455 524 32,000  Level FlightAware
05:53PM 39.3710 -89.6550 328° Northwest 455 524 32,000  Level FlightAware
05:54PM 39.4430 -89.7130 328° Northwest 456 525 32,000  Level FlightAware
05:55PM 39.5310 -89.7840 328° Northwest 456 525 32,000  Level FlightAware
05:56PM 39.6320 -89.8660 328° Northwest 456 525 32,000  Level FlightAware
05:56PM 39.6860 -89.9120 327° Northwest 456 525 32,000  Level FlightAware
05:57PM 39.7850 -89.9920 328° Northwest 458 527 32,000  Level FlightAware
05:58PM 39.8800 -90.0700 328° Northwest 458 527 32,000  Level FlightAware
05:59PM 39.9640 -90.1390 328° Northwest 457 526 32,000  Level FlightAware
06:00PM 40.0360 -90.1990 327° Northwest 458 527 32,000  Level FlightAware
06:00PM 40.0920 -90.2450 328° Northwest 457 526 32,000  Level FlightAware
06:01PM 40.1830 -90.3210 327° Northwest 456 525 32,000  Level FlightAware
06:02PM 40.2540 -90.3800 328° Northwest 454 522 32,000  Level FlightAware
06:02PM 40.3270 -90.4420 327° Northwest 453 521 32,000  Level FlightAware
06:03PM 40.4070 -90.5090 327° Northwest 452 520 32,000  Level FlightAware
06:04PM 40.4640 -90.5570 327° Northwest 452 520 32,000  Level FlightAware
06:04PM 40.5390 -90.6210 327° Northwest 452 520 32,000  Level FlightAware
06:05PM 40.6280 -90.6950 328° Northwest 451 519 32,000  Level FlightAware
06:06PM 40.7170 -90.7710 327° Northwest 452 520 32,000  Level FlightAware
06:07PM 40.7960 -90.8380 327° Northwest 452 520 32,000  Level FlightAware
06:07PM 40.8660 -90.8980 327° Northwest 453 521 32,000  Level FlightAware
06:08PM 40.9430 -90.9640 327° Northwest 453 521 32,000  Level FlightAware
06:09PM 41.0260 -91.0350 327° Northwest 453 521 32,000  Level FlightAware
06:10PM 41.0890 -91.0900 327° Northwest 452 520 32,000  Level FlightAware
06:10PM 41.1730 -91.1620 327° Northwest 450 518 32,000  Level FlightAware
06:11PM 41.2430 -91.2230 327° Northwest 447 514 32,000  Level FlightAware
06:12PM 41.3240 -91.2940 327° Northwest 446 513 32,000  Level FlightAware
06:12PM 41.3990 -91.3590 327° Northwest 444 511 32,000  Level FlightAware
06:13PM 41.4820 -91.4320 327° Northwest 444 511 32,000  Level FlightAware
06:14PM 41.5530 -91.4930 327° Northwest 445 512 32,000  Level FlightAware
06:15PM 41.6180 -91.5510 326° Northwest 446 513 32,000  Level FlightAware
06:15PM 41.6840 -91.6100 326° Northwest 447 514 32,000  Level FlightAware
06:16PM 41.7660 -91.6820 327° Northwest 448 516 32,000  Level FlightAware
06:17PM 41.8460 -91.7530 327° Northwest 450 518 32,000  Level FlightAware
06:17PM 41.9130 -91.8130 326° Northwest 452 520 32,000  Level FlightAware
06:18PM 41.9920 -91.8840 326° Northwest 453 521 32,000  Level FlightAware
06:19PM 42.0530 -91.9390 326° Northwest 454 522 32,000  Level FlightAware
06:20PM 42.1350 -92.0130 326° Northwest 456 525 32,000  Level FlightAware
06:20PM 42.2060 -92.0770 326° Northwest 455 524 32,000  Level FlightAware
06:21PM 42.2780 -92.1420 326° Northwest 456 525 32,000  Level FlightAware
06:22PM 42.3530 -92.2100 326° Northwest 455 524 32,000 -360 Level FlightAware
06:22PM 42.4340 -92.2840 326° Northwest 450 518 31,500 -960 Descending FlightAware
06:23PM 42.5020 -92.3460 326° Northwest 455 524 30,700 -1,140 Descending FlightAware
06:24PM 42.5730 -92.4110 326° Northwest 455 524 30,000 -540 Descending FlightAware
06:24PM 42.6410 -92.4730 326° Northwest 456 525 30,000  Level FlightAware
06:25PM 42.7150 -92.5420 326° Northwest 458 527 30,000 -540 Level FlightAware
06:26PM 42.7960 -92.6170 326° Northwest 459 528 29,200 -1,140 Descending FlightAware
06:27PM 42.8700 -92.6850 326° Northwest 460 529 28,400 -900 Descending FlightAware
06:27PM 42.9420 -92.7520 326° Northwest 454 522 28,000 -300 Descending FlightAware
06:28PM 43.0150 -92.8200 326° Northwest 457 526 28,000  Level FlightAware
06:29PM 43.0870 -92.8880 325° Northwest 463 533 28,000  Level FlightAware
06:29PM 43.1660 -92.9620 326° Northwest 463 533 28,000  Level FlightAware
06:30PM 43.2370 -93.0280 326° Northwest 465 535 28,000  Level FlightAware
06:31PM 43.3170 -93.1040 325° Northwest 462 532 28,000 -720 Level FlightAware
06:31PM 43.3870 -93.1700 326° Northwest 431 496 27,000 -2,400 Descending FlightAware
06:32PM 43.4520 -93.2320 325° Northwest 426 490 24,800 -3,060 Descending FlightAware
06:33PM 43.5250 -93.2890 330° Northwest 420 483 22,700 -2,760 Descending FlightAware
06:34PM 43.6040 -93.2940 357° North 411 473 20,900 -2,640 Descending FlightAware
06:34PM 43.6880 -93.2860 North 404 465 19,000 -2,520 Descending FlightAware
06:35PM 43.7650 -93.2780 North 396 456 17,400 -2,280 Descending FlightAware
06:36PM 43.8390 -93.2710 North 388 447 16,000 -2,100 Descending FlightAware
06:36PM 43.9160 -93.2640 North 380 437 14,500 -2,100 Descending FlightAware
06:37PM 43.9860 -93.2580 North 371 427 13,100 -2,100 Descending FlightAware
06:38PM 44.0620 -93.2510 North 363 418 11,600 -1,800 Descending FlightAware
06:38PM 44.1290 -93.2440 North 346 398 10,600 -1,380 Descending FlightAware
06:39PM 44.1780 -93.2400 North 339 390 10,000 -900 Descending FlightAware
06:39PM 44.1930 -93.2380 North 339 390 10,000  Level FlightAware
06:40PM 44.2400 -93.2340 North 339 390 10,000  Level FlightAware
06:40PM 44.2770 -93.2300 North 339 390 10,000  Level FlightAware
06:41PM 44.3250 -93.2260 North 338 389 10,000  Level FlightAware
06:41PM 44.3720 -93.2210 North 340 391 10,000  Level FlightAware
06:41PM 44.4130 -93.2170 North 340 391 10,000  Level FlightAware
06:42PM 44.4600 -93.2130 North 340 391 10,000  Level FlightAware
06:42PM 44.4980 -93.2090 North 341 392 10,000  Level FlightAware
06:43PM 44.5240 -93.2070 North 341 392 10,000  Level FlightAware
06:43PM 44.5710 -93.2020 North 341 392 10,000  Level FlightAware
06:44PM 44.6190 -93.1980 North 340 391 10,000  Level FlightAware
06:44PM 44.6550 -93.2060 351° North 335 386 10,000  Level FlightAware
06:45PM 44.6980 -93.2320 337° Northwest 310 357 10,000 -240 Level FlightAware
06:45PM 44.7270 -93.2500 336° Northwest 288 331 9,800 -1,140 Descending FlightAware
06:45PM 44.7630 -93.2730 336° Northwest 284 327 9,000 -1,740 Descending FlightAware
06:46PM 44.8000 -93.2960 336° Northwest 283 326 8,100 -1,500 Descending FlightAware
06:46PM 44.8130 -93.3040 336° Northwest 276 318 8,000 -240 Descending FlightAware
06:46PM 44.8280 -93.3190 325° Northwest 255 293 8,000  Level FlightAware
06:47PM 44.8380 -93.3370 308° West 243 280 8,000  Level FlightAware
06:47PM 44.8540 -93.3700 304° West 234 269 8,000  Level FlightAware
06:47PM 44.8620 -93.3880 302° West 234 269 8,000  Level FlightAware
06:48PM 44.8810 -93.4260 305° West 235 270 8,000  Level FlightAware
06:48PM 44.8960 -93.4580 304° West 235 270 8,000  Level FlightAware
06:49PM 44.9170 -93.5030 303° West 234 269 8,000  Level FlightAware
06:49PM 44.9320 -93.5340 304° West 233 268 8,000 -120 Level FlightAware
06:50PM 44.9510 -93.5730 305° West 232 267 7,900 -540 Descending FlightAware
06:50PM 44.9690 -93.6100 305° West 231 266 7,500 -1,020 Descending FlightAware
06:51PM 44.9830 -93.6420 302° West 229 264 7,000 -1,200 Descending FlightAware
06:51PM 44.9920 -93.6590 307° West 218 251 6,700 -1,080 Descending FlightAware
06:51PM 45.0100 -93.6940 306° West 212 244 6,200 -1,080 Descending FlightAware
06:52PM 45.0190 -93.7000 335° Northwest 214 246 6,000 -300 Descending FlightAware
06:52PM 45.0490 -93.6910 12° North 222 255 6,000  Level FlightAware
06:52PM 45.0590 -93.6760 47° Northeast 218 251 6,000  Level FlightAware
06:53PM 45.0670 -93.6590 56° Northeast 217 250 6,000  Level FlightAware
06:53PM 45.0680 -93.6460 84° East 212 244 6,000 -180 Level FlightAware
06:53PM 45.0550 -93.6080 116° Southeast 213 245 5,900 -600 Descending FlightAware
06:54PM 45.0420 -93.5810 124° Southeast 202 232 5,500 -900 Descending FlightAware
06:54PM 45.0290 -93.5490 120° Southeast 173 199 5,100 -540 Descending FlightAware
06:55PM 45.0180 -93.5230 121° Southeast 158 182 5,000 -240 Descending FlightAware
06:55PM 45.0080 -93.4980 119° Southeast 163 188 4,900 -660 Descending FlightAware
06:56PM 44.9950 -93.4720 125° Southeast 157 181 4,400 -900 Descending FlightAware
06:56PM 44.9860 -93.4510 121° Southeast 155 178 4,100 -780 Descending FlightAware
06:56PM 44.9750 -93.4250 121° Southeast 149 171 3,700 -780 Descending FlightAware
06:57PM 44.9660 -93.4040 121° Southeast 140 161 3,400 -780 Descending FlightAware
06:57PM 44.9570 -93.3800 118° Southeast 138 159 3,000 -840 Descending FlightAware
06:58PM 44.9520 -93.3690 123° Southeast 139 160 2,800 -720 Descending FlightAware
06:58PM 44.9420 -93.3460 122° Southeast 131 151 2,500 -780 Descending FlightAware
06:58PM 44.9390 -93.3390 121° Southeast 128 147 2,300 -780 Descending FlightAware
06:59PM 44.9300 -93.3170 120° Southeast 128 147 2,000 -600 Descending FlightAware
06:59PM 44.9210 -93.2950 120° Southeast 130 150 1,700 -780 Descending FlightAware
07:00PM 44.9130 -93.2760 121° Southeast 128 147 1,300 -780 Descending FlightAware
07:00PM 44.9030 -93.2540 123° Southeast 138 159 1,000 -600 Descending FlightAware
07:00PM 44.9000 -93.2450 115° Southeast 138 159 900 -600 Descending FlightAware